createdAt,value
2018-09-25T00:02:01.246Z,2.20
2018-09-25T00:04:47.883Z,1.90
2018-09-25T00:07:34.115Z,2.40
2018-09-25T00:10:20.444Z,2.03
2018-09-25T00:13:06.971Z,2.00
2018-09-25T00:15:53.145Z,1.90
2018-09-25T00:18:39.327Z,2.00
2018-09-25T00:21:25.945Z,2.33
2018-09-25T00:24:12.435Z,2.20
2018-09-25T00:26:58.762Z,2.30
2018-09-25T00:29:45.056Z,2.60
2018-09-25T00:32:31.611Z,2.20
2018-09-25T00:35:17.984Z,2.77
2018-09-25T00:38:04.270Z,2.57
2018-09-25T00:40:50.623Z,2.30
2018-09-25T00:43:37.136Z,2.73
2018-09-25T00:46:23.323Z,2.77
2018-09-25T00:49:09.740Z,2.50
2018-09-25T00:51:56.028Z,2.90
2018-09-25T00:54:42.454Z,2.47
2018-09-25T00:57:29.460Z,2.37
2018-09-25T01:00:15.247Z,6.17
2018-09-25T01:03:02.305Z,4.70
2018-09-25T01:05:48.219Z,2.87
2018-09-25T01:08:34.594Z,3.70
2018-09-25T01:11:20.899Z,3.50
2018-09-25T01:14:07.112Z,3.33
2018-09-25T01:16:53.751Z,4.97
2018-09-25T01:19:39.916Z,4.87
2018-09-25T01:22:27.011Z,4.17
2018-09-25T01:25:12.776Z,3.20
2018-09-25T01:27:59.290Z,2.80
2018-09-25T01:30:45.622Z,2.80
2018-09-25T01:33:32.128Z,3.50
2018-09-25T01:36:18.752Z,3.40
2018-09-25T01:39:05.089Z,2.87
2018-09-25T01:41:51.343Z,3.03
2018-09-25T01:44:38.616Z,3.43
2018-09-25T01:47:25.232Z,2.77
2018-09-25T01:50:11.511Z,2.80
2018-09-25T01:52:57.979Z,2.53
2018-09-25T01:55:44.339Z,2.63
2018-09-25T01:58:30.892Z,2.50
2018-09-25T02:01:17.267Z,2.50
2018-09-25T02:04:03.867Z,2.47
2018-09-25T02:06:50.259Z,2.20
2018-09-25T02:09:36.656Z,2.20
2018-09-25T02:12:23.128Z,2.83
2018-09-25T02:15:09.592Z,2.40
2018-09-25T02:17:55.983Z,2.77
2018-09-25T02:20:42.520Z,2.80
2018-09-25T02:23:28.732Z,2.07
2018-09-25T02:26:15.100Z,2.80
2018-09-25T02:29:01.559Z,1.53
2018-09-25T02:31:48.007Z,2.37
2018-09-25T02:34:35.331Z,2.50
2018-09-25T02:37:20.887Z,2.80
2018-09-25T02:40:07.321Z,2.30
2018-09-25T02:42:53.581Z,2.13
2018-09-25T02:45:40.201Z,2.00
2018-09-25T02:48:26.290Z,2.60
2018-09-25T02:51:12.884Z,2.13
2018-09-25T02:53:59.195Z,3.00
2018-09-25T02:56:45.395Z,2.00
2018-09-25T02:59:31.906Z,2.20
2018-09-25T03:02:18.121Z,1.47
2018-09-25T03:05:05.231Z,2.30
2018-09-25T03:07:52.447Z,1.73
2018-09-25T03:10:38.080Z,2.10
2018-09-25T03:13:24.523Z,2.23
2018-09-25T03:16:10.964Z,1.80
2018-09-25T03:18:57.823Z,2.03
2018-09-25T03:21:43.686Z,2.53
2018-09-25T03:24:30.019Z,1.83
2018-09-25T03:27:16.513Z,1.63
2018-09-25T03:30:02.720Z,2.00
2018-09-25T03:32:49.200Z,1.93
2018-09-25T03:35:35.923Z,2.27
2018-09-25T03:38:21.851Z,2.17
2018-09-25T03:41:08.124Z,1.87
2018-09-25T03:43:54.659Z,2.20
2018-09-25T03:46:41.028Z,2.20
2018-09-25T03:49:27.339Z,1.63
2018-09-25T03:52:13.606Z,2.10
2018-09-25T03:55:01.128Z,2.23
2018-09-25T03:57:47.476Z,1.70
2018-09-25T04:00:33.903Z,1.70
2018-09-25T04:03:20.320Z,2.00
2018-09-25T04:06:06.873Z,2.03
2018-09-25T04:08:53.703Z,2.63
2018-09-25T04:11:39.671Z,1.60
2018-09-25T04:14:26.235Z,2.50
2018-09-25T04:17:12.404Z,2.00
2018-09-25T04:19:58.951Z,2.00
2018-09-25T04:22:45.483Z,1.90
2018-09-25T04:25:31.676Z,2.40
2018-09-25T04:28:18.109Z,3.13
2018-09-25T04:31:04.489Z,2.30
2018-09-25T04:33:50.771Z,2.43
2018-09-25T04:36:37.220Z,2.00
2018-09-25T04:39:23.377Z,2.20
2018-09-25T04:42:09.965Z,2.03
2018-09-25T04:44:56.428Z,2.23
2018-09-25T04:47:42.625Z,2.67
2018-09-25T04:50:29.123Z,2.50
2018-09-25T04:53:15.303Z,1.90
2018-09-25T04:56:01.960Z,2.70
2018-09-25T04:58:48.272Z,3.40
2018-09-25T05:01:34.863Z,1.77
2018-09-25T05:04:21.326Z,2.10
2018-09-25T05:07:07.723Z,2.30
2018-09-25T05:09:54.054Z,2.13
2018-09-25T05:12:40.602Z,2.00
2018-09-25T05:15:26.815Z,1.67
2018-09-25T05:18:13.308Z,1.57
2018-09-25T05:21:00.347Z,2.10
2018-09-25T05:23:46.128Z,1.73
2018-09-25T05:26:32.681Z,2.17
2018-09-25T05:29:19.024Z,2.20
2018-09-25T05:32:05.196Z,2.60
2018-09-25T05:34:51.601Z,1.93
2018-09-25T05:37:38.680Z,2.77
2018-09-25T05:40:24.484Z,2.67
2018-09-25T05:43:10.723Z,2.33
2018-09-25T05:45:57.115Z,2.20
2018-09-25T05:48:43.660Z,2.70
2018-09-25T05:51:30.025Z,2.60
2018-09-25T05:54:16.483Z,3.03
2018-09-25T05:57:03.039Z,2.40
2018-09-25T05:59:49.330Z,3.23
2018-09-25T06:02:35.871Z,2.60
2018-09-25T06:05:22.165Z,3.40
2018-09-25T06:08:08.551Z,3.47
2018-09-25T06:10:54.790Z,2.77
2018-09-25T06:13:41.184Z,2.27
2018-09-25T06:16:27.606Z,2.27
2018-09-25T06:19:13.943Z,2.40
2018-09-25T06:22:00.303Z,3.20
2018-09-25T06:24:46.963Z,2.93
2018-09-25T06:27:33.349Z,2.57
2018-09-25T06:30:19.703Z,2.93
2018-09-25T06:33:05.963Z,2.87
2018-09-25T06:35:52.379Z,2.27
2018-09-25T06:38:38.640Z,2.70
2018-09-25T06:41:25.023Z,2.03
2018-09-25T06:44:11.331Z,2.53
2018-09-25T06:46:57.671Z,2.83
2018-09-25T06:49:44.599Z,2.10
2018-09-25T06:52:30.395Z,2.60
2018-09-25T06:55:16.908Z,2.70
2018-09-25T06:58:03.306Z,2.60
2018-09-25T07:00:49.879Z,2.00
2018-09-25T07:03:36.224Z,3.27
2018-09-25T07:06:22.463Z,2.07
2018-09-25T07:09:08.788Z,3.20
2018-09-25T07:11:55.158Z,2.60
2018-09-25T07:14:41.427Z,2.63
2018-09-25T07:17:27.936Z,1.90
2018-09-25T07:20:14.360Z,2.30
2018-09-25T07:23:00.865Z,2.27
2018-09-25T07:25:47.102Z,2.30
2018-09-25T07:28:33.587Z,2.43
2018-09-25T07:31:19.963Z,2.83
2018-09-25T07:34:06.251Z,4.20
2018-09-25T07:36:52.800Z,2.67
2018-09-25T07:39:39.020Z,2.60
2018-09-25T07:42:25.527Z,2.83
2018-09-25T07:45:11.791Z,1.87
2018-09-25T07:47:57.459Z,2.20
2018-09-25T07:50:43.943Z,2.03
2018-09-25T07:53:30.417Z,2.27
2018-09-25T07:56:16.767Z,2.80
2018-09-25T07:59:03.052Z,4.67
2018-09-25T08:01:49.215Z,2.83
2018-09-25T08:04:35.580Z,4.00
2018-09-25T08:07:22.640Z,2.90
2018-09-25T08:10:08.416Z,3.60
2018-09-25T08:12:54.944Z,2.90
2018-09-25T08:15:41.349Z,3.33
2018-09-25T08:18:27.527Z,4.33
2018-09-25T08:21:14.159Z,4.13
2018-09-25T08:24:00.420Z,4.57
2018-09-25T08:26:46.787Z,5.17
2018-09-25T08:29:33.301Z,3.70
2018-09-25T08:32:19.867Z,3.53
2018-09-25T08:35:06.018Z,3.97
2018-09-25T08:37:52.376Z,4.00
2018-09-25T08:40:38.664Z,3.60
2018-09-25T08:43:25.240Z,3.33
2018-09-25T08:46:12.155Z,3.53
2018-09-25T08:48:58.096Z,3.13
2018-09-25T08:51:44.456Z,3.97
2018-09-25T08:54:31.432Z,3.63
2018-09-25T08:57:17.470Z,4.70
2018-09-25T09:00:03.503Z,4.50
2018-09-25T09:02:49.974Z,2.90
2018-09-25T09:05:36.111Z,4.20
2018-09-25T09:08:21.770Z,3.63
2018-09-25T09:11:08.126Z,2.27
2018-09-25T09:13:54.341Z,2.53
2018-09-25T09:16:40.731Z,3.60
2018-09-25T09:19:27.421Z,3.37
2018-09-25T09:22:13.535Z,3.43
2018-09-25T09:25:00.046Z,2.50
2018-09-25T09:27:46.453Z,2.50
2018-09-25T09:30:32.762Z,2.97
2018-09-25T09:33:19.055Z,2.73
2018-09-25T09:36:05.567Z,2.83
2018-09-25T09:38:51.903Z,3.57
2018-09-25T09:41:38.685Z,3.20
2018-09-25T09:44:24.700Z,2.63
2018-09-25T09:47:11.055Z,2.70
2018-09-25T09:49:58.108Z,2.57
2018-09-25T09:52:43.769Z,3.40
2018-09-25T09:55:29.235Z,2.37
2018-09-25T09:58:16.303Z,3.37
2018-09-25T10:01:02.231Z,2.43
2018-09-25T10:03:48.634Z,2.40
2018-09-25T10:06:35.074Z,2.90
2018-09-25T10:09:21.245Z,2.40
2018-09-25T10:12:07.767Z,2.17
2018-09-25T10:14:54.128Z,1.70
2018-09-25T10:17:40.692Z,1.80
2018-09-25T10:20:27.150Z,2.03
2018-09-25T10:23:13.750Z,2.53
2018-09-25T10:26:00.943Z,2.37
2018-09-25T10:28:46.707Z,3.47
2018-09-25T10:31:32.899Z,1.90
2018-09-25T10:34:19.442Z,2.90
2018-09-25T10:37:05.851Z,3.53
2018-09-25T10:39:52.147Z,3.17
2018-09-25T10:42:38.628Z,2.60
2018-09-25T10:45:25.103Z,2.40
2018-09-25T10:48:11.440Z,2.80
2018-09-25T10:50:57.848Z,3.13
2018-09-25T10:53:44.411Z,2.93
2018-09-25T10:56:30.700Z,2.40
2018-09-25T10:59:17.012Z,2.53
2018-09-25T11:02:03.424Z,2.50
2018-09-25T11:04:49.948Z,3.00
2018-09-25T11:07:36.167Z,2.63
2018-09-25T11:10:22.598Z,2.57
2018-09-25T11:13:08.867Z,2.60
2018-09-25T11:15:55.421Z,3.70
2018-09-25T11:18:41.984Z,3.90
2018-09-25T11:21:28.376Z,3.97
2018-09-25T11:24:14.814Z,4.20
2018-09-25T11:27:00.954Z,3.73
2018-09-25T11:29:47.539Z,3.90
2018-09-25T11:32:33.738Z,3.57
2018-09-25T11:35:20.301Z,3.50
2018-09-25T11:38:06.814Z,3.47
2018-09-25T11:40:52.816Z,3.53
2018-09-25T11:43:39.251Z,2.73
2018-09-25T11:46:26.044Z,2.50
2018-09-25T11:49:12.021Z,3.10
2018-09-25T11:51:58.499Z,3.37
2018-09-25T11:54:44.859Z,2.10
2018-09-25T11:57:31.268Z,2.30
2018-09-25T12:00:18.479Z,2.50
2018-09-25T12:03:05.140Z,1.57
2018-09-25T12:05:51.460Z,1.77
2018-09-25T12:08:38.445Z,1.80
2018-09-25T12:11:24.373Z,2.40
2018-09-25T12:14:10.752Z,2.57
2018-09-25T12:16:57.224Z,1.87
2018-09-25T12:19:43.925Z,1.97
2018-09-25T12:22:30.107Z,2.37
2018-09-25T12:25:16.528Z,2.90
2018-09-25T12:28:03.141Z,2.40
2018-09-25T12:30:49.480Z,3.33
2018-09-25T12:33:35.918Z,3.37
2018-09-25T12:36:22.232Z,2.17
2018-09-25T12:39:08.543Z,2.70
2018-09-25T12:41:55.005Z,3.43
2018-09-25T12:44:41.584Z,2.80
2018-09-25T12:47:27.944Z,3.13
2018-09-25T12:50:14.416Z,2.27
2018-09-25T12:53:08.001Z,3.43
2018-09-25T12:55:54.498Z,2.70
2018-09-25T12:58:40.764Z,3.40
2018-09-25T13:01:27.396Z,2.97
2018-09-25T13:04:13.903Z,3.63
2018-09-25T13:07:00.227Z,3.00
2018-09-25T13:09:46.950Z,2.70
2018-09-25T13:12:33.250Z,2.70
2018-09-25T13:15:19.463Z,3.17
2018-09-25T13:18:06.797Z,2.90
2018-09-25T13:20:53.372Z,2.93
2018-09-25T13:23:39.497Z,3.10
2018-09-25T13:26:25.896Z,3.13
2018-09-25T13:29:12.357Z,3.37
2018-09-25T13:31:58.595Z,3.17
2018-09-25T13:34:45.015Z,3.90
2018-09-25T13:37:31.335Z,3.40
2018-09-25T13:40:18.392Z,5.03
2018-09-25T13:43:03.936Z,4.60
2018-09-25T13:45:50.220Z,4.27
2018-09-25T13:48:36.663Z,4.67
2018-09-25T13:51:23.151Z,5.60
2018-09-25T13:54:09.740Z,5.00
2018-09-25T13:56:56.115Z,5.30
2018-09-25T13:59:42.427Z,4.17
2018-09-25T14:02:28.832Z,5.83
2018-09-25T14:05:15.385Z,5.37
2018-09-25T14:08:01.655Z,6.63
2018-09-25T14:10:48.024Z,5.97
2018-09-25T14:13:34.380Z,5.73
2018-09-25T14:16:21.192Z,5.10
2018-09-25T14:19:08.128Z,5.23
2018-09-25T14:21:54.636Z,6.20
2018-09-25T14:24:40.976Z,5.00
2018-09-25T14:27:27.388Z,6.40
2018-09-25T14:30:13.860Z,5.87
2018-09-25T14:33:00.298Z,6.23
2018-09-25T14:35:46.655Z,7.20
2018-09-25T14:38:33.083Z,5.70
2018-09-25T14:41:19.425Z,6.87
2018-09-25T14:44:05.955Z,6.27
2018-09-25T14:46:52.403Z,6.63
2018-09-25T14:49:38.947Z,7.47
2018-09-25T14:52:25.292Z,6.10
2018-09-25T14:55:11.695Z,6.80
2018-09-25T14:57:58.144Z,8.00
2018-09-25T15:00:44.671Z,8.57
2018-09-25T15:03:31.121Z,8.43
2018-09-25T15:06:17.515Z,9.10
2018-09-25T15:09:03.804Z,9.20
2018-09-25T15:11:50.231Z,10.53
2018-09-25T15:14:36.864Z,8.70
2018-09-25T15:17:23.164Z,10.97
2018-09-25T15:20:09.615Z,10.80
2018-09-25T15:22:56.169Z,8.87
2018-09-25T15:25:42.516Z,10.70
2018-09-25T15:28:29.875Z,7.80
2018-09-25T15:31:16.241Z,8.50
2018-09-25T15:34:02.856Z,9.37
2018-09-25T15:36:49.119Z,7.90
2018-09-25T15:39:35.507Z,9.67
2018-09-25T15:42:21.212Z,10.30
2018-09-25T15:45:07.472Z,9.67
2018-09-25T15:47:54.065Z,10.90
2018-09-25T15:50:40.361Z,10.33
2018-09-25T15:53:26.744Z,11.43
2018-09-25T15:56:13.063Z,11.17
2018-09-25T15:58:59.305Z,12.37
2018-09-25T16:01:46.363Z,12.90
2018-09-25T16:04:32.101Z,11.40
2018-09-25T16:07:18.436Z,11.37
2018-09-25T16:10:04.607Z,12.00
2018-09-25T16:12:51.011Z,12.30
2018-09-25T16:15:37.396Z,10.93
2018-09-25T16:18:23.687Z,10.87
2018-09-25T16:21:10.134Z,10.90
2018-09-25T16:23:56.544Z,9.83
2018-09-25T16:26:42.880Z,10.53
2018-09-25T16:29:29.403Z,9.20
2018-09-25T16:32:15.612Z,10.77
2018-09-25T16:35:02.193Z,9.33
2018-09-25T16:37:48.678Z,9.87
2018-09-25T16:40:35.020Z,9.40
2018-09-25T16:43:21.496Z,9.30
2018-09-25T16:46:07.903Z,10.23
2018-09-25T16:48:54.223Z,8.70
2018-09-25T16:51:40.744Z,7.53
2018-09-25T16:54:27.147Z,7.87
2018-09-25T16:57:13.532Z,8.47
2018-09-25T17:00:00.064Z,8.70
2018-09-25T17:02:46.445Z,8.50
2018-09-25T17:05:33.060Z,8.60
2018-09-25T17:08:19.211Z,9.50
2018-09-25T17:11:06.236Z,9.53
2018-09-25T17:13:52.699Z,10.30
2018-09-25T17:16:38.528Z,11.50
2018-09-25T17:19:24.049Z,10.30
2018-09-25T17:22:10.463Z,11.60
2018-09-25T17:24:56.706Z,11.03
2018-09-25T17:27:43.287Z,10.90
2018-09-25T17:30:29.459Z,10.60
2018-09-25T17:33:16.055Z,10.50
2018-09-25T17:36:02.339Z,11.17
2018-09-25T17:38:48.842Z,11.37
2018-09-25T17:41:35.195Z,11.30
2018-09-25T17:44:21.683Z,12.80
2018-09-25T17:47:07.935Z,11.80
2018-09-25T17:49:54.780Z,11.60
2018-09-25T17:52:40.739Z,11.00
2018-09-25T17:55:27.176Z,13.07
2018-09-25T17:58:13.527Z,11.90
2018-09-25T18:00:59.876Z,13.17
2018-09-25T18:03:46.196Z,11.93
2018-09-25T18:06:32.835Z,12.13
2018-09-25T18:09:19.381Z,13.00
2018-09-25T18:12:05.744Z,15.17
2018-09-25T18:14:52.201Z,13.53
2018-09-25T18:17:38.412Z,15.20
2018-09-25T18:20:25.851Z,12.10
2018-09-25T18:23:11.521Z,12.50
2018-09-25T18:25:57.831Z,14.13
2018-09-25T18:28:44.197Z,13.27
2018-09-25T18:31:30.543Z,14.57
2018-09-25T18:34:16.960Z,14.13
2018-09-25T18:37:03.904Z,13.60
2018-09-25T18:39:49.743Z,15.43
2018-09-25T18:42:36.005Z,16.33
2018-09-25T18:45:22.447Z,14.50
2018-09-25T18:48:08.859Z,15.70
2018-09-25T18:50:55.235Z,15.13
2018-09-25T18:53:41.627Z,15.83
2018-09-25T18:56:28.128Z,16.93
2018-09-25T18:59:14.627Z,17.23
2018-09-25T19:02:01.776Z,16.30
2018-09-25T19:04:49.104Z,16.40
2018-09-25T19:07:35.864Z,15.73
2018-09-25T19:10:22.137Z,15.47
2018-09-25T19:13:08.684Z,15.93
2018-09-25T19:15:55.763Z,16.10
2018-09-25T19:18:43.043Z,15.90
2018-09-25T19:21:29.697Z,14.57
2018-09-25T19:24:16.151Z,14.87
2018-09-25T19:27:02.492Z,13.97
2018-09-25T19:29:48.983Z,14.93
2018-09-25T19:32:36.063Z,15.10
2018-09-25T19:35:22.384Z,15.83
2018-09-25T19:38:08.450Z,15.83
2018-09-25T19:40:54.875Z,15.90
2018-09-25T19:43:41.287Z,15.67
2018-09-25T19:46:28.880Z,17.00
2018-09-25T19:49:15.059Z,17.93
2018-09-25T19:52:01.584Z,16.90
2018-09-25T19:54:47.982Z,17.53
2018-09-25T19:57:34.939Z,17.17
2018-09-25T20:00:20.868Z,16.53
2018-09-25T20:03:07.574Z,15.90
2018-09-25T20:05:53.613Z,16.60
2018-09-25T20:08:40.088Z,17.03
2018-09-25T20:11:26.656Z,15.97
2018-09-25T20:14:12.815Z,13.60
2018-09-25T20:16:59.348Z,14.63
2018-09-25T20:19:46.779Z,16.13
2018-09-25T20:22:33.319Z,15.37
2018-09-25T20:25:19.547Z,15.17
2018-09-25T20:28:06.228Z,13.63
2018-09-25T20:30:52.606Z,13.63
2018-09-25T20:33:39.048Z,13.13
2018-09-25T20:36:25.404Z,14.40
2018-09-25T20:39:11.867Z,12.83
2018-09-25T20:41:58.068Z,12.80
2018-09-25T20:44:44.499Z,13.37
2018-09-25T20:47:30.753Z,14.27
2018-09-25T20:50:16.395Z,12.90
2018-09-25T20:53:02.927Z,13.60
2018-09-25T20:55:49.471Z,14.40
2018-09-25T20:58:35.864Z,13.03
2018-09-25T21:01:22.291Z,12.63
2018-09-25T21:04:08.744Z,14.13
2018-09-25T21:06:55.374Z,12.17
2018-09-25T21:09:41.553Z,13.30
2018-09-25T21:12:27.736Z,13.53
2018-09-25T21:15:14.075Z,12.93
2018-09-25T21:18:00.771Z,12.80
2018-09-25T21:20:46.875Z,13.80
2018-09-25T21:23:33.448Z,13.50
2018-09-25T21:26:19.612Z,14.20
2018-09-25T21:29:06.156Z,14.27
2018-09-25T21:31:52.680Z,13.50
2018-09-25T21:34:39.027Z,13.00
2018-09-25T21:37:25.536Z,13.23
2018-09-25T21:40:11.887Z,14.00
2018-09-25T21:42:58.292Z,14.03
2018-09-25T21:45:44.430Z,13.80
2018-09-25T21:48:30.968Z,14.03
2018-09-25T21:51:17.717Z,13.83
2018-09-25T21:54:03.583Z,14.97
2018-09-25T21:56:49.989Z,14.83
2018-09-25T21:59:36.439Z,15.90
2018-09-25T22:02:22.721Z,14.40
2018-09-25T22:05:09.053Z,14.53
2018-09-25T22:07:55.397Z,14.90
2018-09-25T22:10:41.847Z,14.83
2018-09-25T22:13:28.752Z,14.20
2018-09-25T22:16:14.531Z,15.80
2018-09-25T22:19:01.039Z,16.97
2018-09-25T22:21:47.435Z,15.00
2018-09-25T22:24:33.924Z,16.83
2018-09-25T22:27:20.273Z,16.00
2018-09-25T22:30:06.660Z,15.43
2018-09-25T22:32:53.074Z,16.60
2018-09-25T22:35:39.580Z,15.70
2018-09-25T22:38:25.863Z,17.07
2018-09-25T22:41:12.251Z,17.00
2018-09-25T22:43:58.417Z,15.93
2018-09-25T22:46:44.807Z,17.70
2018-09-25T22:49:31.248Z,17.50
2018-09-25T22:52:17.867Z,18.33
2018-09-25T22:55:04.227Z,18.40
2018-09-25T22:57:51.248Z,17.30
2018-09-25T23:00:37.055Z,16.73
2018-09-25T23:03:23.302Z,18.10
2018-09-25T23:06:09.803Z,17.90
2018-09-25T23:08:56.111Z,16.30
2018-09-25T23:11:42.628Z,16.73
2018-09-25T23:14:28.871Z,16.80
2018-09-25T23:17:15.300Z,18.50
2018-09-25T23:20:01.652Z,17.00
2018-09-25T23:22:47.939Z,17.17
2018-09-25T23:25:34.345Z,14.90
2018-09-25T23:28:20.747Z,17.60
2018-09-25T23:31:06.968Z,17.90
2018-09-25T23:33:54.206Z,19.47
2018-09-25T23:36:40.571Z,16.40
2018-09-25T23:39:43.294Z,16.20
2018-09-25T23:42:45.575Z,16.40
2018-09-25T23:45:34.883Z,18.00
2018-09-25T23:48:20.679Z,16.93
2018-09-25T23:51:06.711Z,16.80
2018-09-25T23:53:52.744Z,15.40
2018-09-25T23:56:38.472Z,16.20
2018-09-25T23:59:25.058Z,14.73
